sensor_id;sensor_type;location;lat;lon;timestamp;P1;durP1;ratioP1;P2;durP2;ratioP2
4051;SDS011;2040;50.924;11.604;2023-08-06T00:01:49;2.57;;;1.37;;
4051;SDS011;2040;50.924;11.604;2023-08-06T00:04:15;2.00;;;1.63;;
4051;SDS011;2040;50.924;11.604;2023-08-06T00:06:40;2.47;;;1.90;;
4051;SDS011;2040;50.924;11.604;2023-08-06T00:09:06;1.57;;;1.40;;
4051;SDS011;2040;50.924;11.604;2023-08-06T00:11:31;1.67;;;1.57;;
4051;SDS011;2040;50.924;11.604;2023-08-06T00:13:57;2.57;;;1.60;;
4051;SDS011;2040;50.924;11.604;2023-08-06T00:16:23;1.80;;;1.60;;
4051;SDS011;2040;50.924;11.604;2023-08-06T00:18:48;4.73;;;1.80;;
4051;SDS011;2040;50.924;11.604;2023-08-06T00:21:14;1.77;;;1.67;;
4051;SDS011;2040;50.924;11.604;2023-08-06T00:23:41;1.80;;;1.40;;
4051;SDS011;2040;50.924;11.604;2023-08-06T00:26:07;3.00;;;1.43;;
4051;SDS011;2040;50.924;11.604;2023-08-06T00:28:33;2.63;;;1.40;;
4051;SDS011;2040;50.924;11.604;2023-08-06T00:30:58;1.83;;;1.47;;
4051;SDS011;2040;50.924;11.604;2023-08-06T00:33:24;1.83;;;1.37;;
4051;SDS011;2040;50.924;11.604;2023-08-06T00:35:50;2.37;;;1.50;;
4051;SDS011;2040;50.924;11.604;2023-08-06T00:38:16;1.87;;;1.70;;
4051;SDS011;2040;50.924;11.604;2023-08-06T00:40:42;1.87;;;1.70;;
4051;SDS011;2040;50.924;11.604;2023-08-06T00:43:08;1.73;;;1.53;;
4051;SDS011;2040;50.924;11.604;2023-08-06T00:45:34;2.30;;;1.67;;
4051;SDS011;2040;50.924;11.604;2023-08-06T00:48:01;3.10;;;1.80;;
4051;SDS011;2040;50.924;11.604;2023-08-06T00:50:29;1.87;;;1.30;;
4051;SDS011;2040;50.924;11.604;2023-08-06T00:52:55;1.90;;;1.70;;
4051;SDS011;2040;50.924;11.604;2023-08-06T00:55:21;1.60;;;1.50;;
4051;SDS011;2040;50.924;11.604;2023-08-06T00:57:47;1.80;;;1.57;;
4051;SDS011;2040;50.924;11.604;2023-08-06T01:00:13;1.73;;;1.50;;
4051;SDS011;2040;50.924;11.604;2023-08-06T01:02:39;2.10;;;1.63;;
4051;SDS011;2040;50.924;11.604;2023-08-06T01:05:04;2.97;;;1.43;;
4051;SDS011;2040;50.924;11.604;2023-08-06T01:13:05;1.63;;;1.37;;
4051;SDS011;2040;50.924;11.604;2023-08-06T01:15:41;3.20;;;1.77;;
4051;SDS011;2040;50.924;11.604;2023-08-06T01:18:11;4.23;;;1.60;;
4051;SDS011;2040;50.924;11.604;2023-08-06T01:20:37;3.23;;;1.70;;
4051;SDS011;2040;50.924;11.604;2023-08-06T01:23:02;1.43;;;1.33;;
4051;SDS011;2040;50.924;11.604;2023-08-06T01:25:35;3.40;;;1.57;;
4051;SDS011;2040;50.924;11.604;2023-08-06T01:28:11;2.10;;;1.90;;
4051;SDS011;2040;50.924;11.604;2023-08-06T01:30:48;4.00;;;1.60;;
4051;SDS011;2040;50.924;11.604;2023-08-06T01:33:16;2.33;;;1.53;;
4051;SDS011;2040;50.924;11.604;2023-08-06T01:35:46;2.50;;;1.40;;
4051;SDS011;2040;50.924;11.604;2023-08-06T01:38:14;2.60;;;1.60;;
4051;SDS011;2040;50.924;11.604;2023-08-06T01:40:40;2.30;;;1.60;;
4051;SDS011;2040;50.924;11.604;2023-08-06T01:43:06;1.50;;;1.40;;
4051;SDS011;2040;50.924;11.604;2023-08-06T01:45:31;1.63;;;1.40;;
4051;SDS011;2040;50.924;11.604;2023-08-06T01:47:57;4.93;;;2.00;;
4051;SDS011;2040;50.924;11.604;2023-08-06T01:50:22;1.67;;;1.57;;
4051;SDS011;2040;50.924;11.604;2023-08-06T01:52:48;2.90;;;1.40;;
4051;SDS011;2040;50.924;11.604;2023-08-06T01:55:14;2.10;;;1.50;;
4051;SDS011;2040;50.924;11.604;2023-08-06T01:57:39;5.80;;;1.50;;
4051;SDS011;2040;50.924;11.604;2023-08-06T02:00:05;1.77;;;1.67;;
4051;SDS011;2040;50.924;11.604;2023-08-06T02:02:31;1.80;;;1.67;;
4051;SDS011;2040;50.924;11.604;2023-08-06T02:04:58;1.90;;;1.40;;
4051;SDS011;2040;50.924;11.604;2023-08-06T02:07:24;1.73;;;1.43;;
4051;SDS011;2040;50.924;11.604;2023-08-06T02:09:50;3.60;;;2.07;;
4051;SDS011;2040;50.924;11.604;2023-08-06T02:12:15;1.67;;;1.57;;
4051;SDS011;2040;50.924;11.604;2023-08-06T02:14:41;1.83;;;1.63;;
4051;SDS011;2040;50.924;11.604;2023-08-06T02:17:06;2.07;;;1.40;;
4051;SDS011;2040;50.924;11.604;2023-08-06T02:19:32;2.80;;;1.83;;
4051;SDS011;2040;50.924;11.604;2023-08-06T02:21:57;2.13;;;1.93;;
4051;SDS011;2040;50.924;11.604;2023-08-06T02:24:23;2.20;;;2.00;;
4051;SDS011;2040;50.924;11.604;2023-08-06T02:26:48;1.90;;;1.70;;
4051;SDS011;2040;50.924;11.604;2023-08-06T02:39:12;2.93;;;2.17;;
4051;SDS011;2040;50.924;11.604;2023-08-06T02:41:38;2.20;;;1.40;;
4051;SDS011;2040;50.924;11.604;2023-08-06T02:44:03;2.00;;;1.70;;
4051;SDS011;2040;50.924;11.604;2023-08-06T02:46:29;2.30;;;1.80;;
4051;SDS011;2040;50.924;11.604;2023-08-06T02:48:55;2.40;;;1.77;;
4051;SDS011;2040;50.924;11.604;2023-08-06T02:51:20;2.13;;;1.63;;
4051;SDS011;2040;50.924;11.604;2023-08-06T02:53:47;4.00;;;1.77;;
4051;SDS011;2040;50.924;11.604;2023-08-06T02:56:13;2.23;;;1.80;;
4051;SDS011;2040;50.924;11.604;2023-08-06T02:58:39;4.20;;;1.60;;
4051;SDS011;2040;50.924;11.604;2023-08-06T03:01:04;3.30;;;1.50;;
4051;SDS011;2040;50.924;11.604;2023-08-06T03:03:31;4.10;;;2.13;;
4051;SDS011;2040;50.924;11.604;2023-08-06T03:05:58;3.63;;;1.60;;
4051;SDS011;2040;50.924;11.604;2023-08-06T03:08:24;3.00;;;1.67;;
4051;SDS011;2040;50.924;11.604;2023-08-06T03:10:50;1.33;;;1.17;;
4051;SDS011;2040;50.924;11.604;2023-08-06T03:13:18;1.73;;;1.53;;
4051;SDS011;2040;50.924;11.604;2023-08-06T03:15:57;2.13;;;1.80;;
4051;SDS011;2040;50.924;11.604;2023-08-06T03:18:24;2.30;;;1.67;;
4051;SDS011;2040;50.924;11.604;2023-08-06T03:20:51;2.93;;;1.83;;
4051;SDS011;2040;50.924;11.604;2023-08-06T03:23:17;2.40;;;2.07;;
4051;SDS011;2040;50.924;11.604;2023-08-06T03:25:43;4.23;;;1.70;;
4051;SDS011;2040;50.924;11.604;2023-08-06T03:28:08;1.90;;;1.60;;
4051;SDS011;2040;50.924;11.604;2023-08-06T03:30:34;2.33;;;1.70;;
4051;SDS011;2040;50.924;11.604;2023-08-06T03:33:00;2.20;;;1.83;;
4051;SDS011;2040;50.924;11.604;2023-08-06T03:35:25;3.20;;;2.37;;
4051;SDS011;2040;50.924;11.604;2023-08-06T03:37:51;2.33;;;1.90;;
4051;SDS011;2040;50.924;11.604;2023-08-06T03:40:16;2.10;;;1.90;;
4051;SDS011;2040;50.924;11.604;2023-08-06T03:42:42;1.73;;;1.50;;
4051;SDS011;2040;50.924;11.604;2023-08-06T03:45:08;2.50;;;1.90;;
4051;SDS011;2040;50.924;11.604;2023-08-06T03:47:34;1.87;;;1.70;;
4051;SDS011;2040;50.924;11.604;2023-08-06T03:49:59;2.13;;;2.00;;
4051;SDS011;2040;50.924;11.604;2023-08-06T03:52:25;3.37;;;2.27;;
4051;SDS011;2040;50.924;11.604;2023-08-06T03:54:50;2.60;;;1.83;;
4051;SDS011;2040;50.924;11.604;2023-08-06T03:57:16;2.20;;;1.90;;
4051;SDS011;2040;50.924;11.604;2023-08-06T03:59:42;1.80;;;1.57;;
4051;SDS011;2040;50.924;11.604;2023-08-06T04:02:07;2.40;;;1.73;;
4051;SDS011;2040;50.924;11.604;2023-08-06T04:04:33;3.03;;;1.67;;
4051;SDS011;2040;50.924;11.604;2023-08-06T04:06:58;2.50;;;1.97;;
4051;SDS011;2040;50.924;11.604;2023-08-06T04:09:24;2.63;;;1.83;;
4051;SDS011;2040;50.924;11.604;2023-08-06T04:11:49;7.70;;;2.20;;
4051;SDS011;2040;50.924;11.604;2023-08-06T04:14:15;3.40;;;2.13;;
4051;SDS011;2040;50.924;11.604;2023-08-06T04:16:41;5.80;;;2.03;;
4051;SDS011;2040;50.924;11.604;2023-08-06T04:19:06;8.50;;;2.43;;
4051;SDS011;2040;50.924;11.604;2023-08-06T04:21:32;3.43;;;2.40;;
4051;SDS011;2040;50.924;11.604;2023-08-06T04:23:57;2.83;;;1.90;;
4051;SDS011;2040;50.924;11.604;2023-08-06T04:26:23;2.43;;;1.80;;
4051;SDS011;2040;50.924;11.604;2023-08-06T04:28:48;2.33;;;1.90;;
4051;SDS011;2040;50.924;11.604;2023-08-06T04:31:14;2.93;;;2.10;;
4051;SDS011;2040;50.924;11.604;2023-08-06T04:33:40;3.27;;;2.00;;
4051;SDS011;2040;50.924;11.604;2023-08-06T04:36:06;8.47;;;2.03;;
4051;SDS011;2040;50.924;11.604;2023-08-06T04:38:31;3.90;;;1.90;;
4051;SDS011;2040;50.924;11.604;2023-08-06T04:40:57;2.80;;;2.23;;
4051;SDS011;2040;50.924;11.604;2023-08-06T04:43:23;2.30;;;2.10;;
4051;SDS011;2040;50.924;11.604;2023-08-06T04:45:49;6.33;;;2.13;;
4051;SDS011;2040;50.924;11.604;2023-08-06T04:48:16;5.57;;;2.27;;
4051;SDS011;2040;50.924;11.604;2023-08-06T04:50:45;3.60;;;1.90;;
4051;SDS011;2040;50.924;11.604;2023-08-06T04:53:11;4.97;;;2.90;;
4051;SDS011;2040;50.924;11.604;2023-08-06T04:55:37;3.00;;;2.40;;
4051;SDS011;2040;50.924;11.604;2023-08-06T04:58:02;2.23;;;2.03;;
4051;SDS011;2040;50.924;11.604;2023-08-06T05:00:28;2.33;;;2.13;;
4051;SDS011;2040;50.924;11.604;2023-08-06T05:02:54;2.70;;;2.13;;
4051;SDS011;2040;50.924;11.604;2023-08-06T05:05:19;3.80;;;2.80;;
4051;SDS011;2040;50.924;11.604;2023-08-06T05:07:47;8.20;;;3.23;;
4051;SDS011;2040;50.924;11.604;2023-08-06T05:10:14;2.90;;;2.20;;
4051;SDS011;2040;50.924;11.604;2023-08-06T05:12:40;5.00;;;2.23;;
4051;SDS011;2040;50.924;11.604;2023-08-06T05:15:05;6.10;;;2.50;;
4051;SDS011;2040;50.924;11.604;2023-08-06T05:17:31;4.07;;;2.20;;
4051;SDS011;2040;50.924;11.604;2023-08-06T05:19:57;2.20;;;2.00;;
4051;SDS011;2040;50.924;11.604;2023-08-06T05:22:22;3.33;;;2.47;;
4051;SDS011;2040;50.924;11.604;2023-08-06T05:24:48;2.70;;;2.43;;
4051;SDS011;2040;50.924;11.604;2023-08-06T05:27:14;3.47;;;2.40;;
4051;SDS011;2040;50.924;11.604;2023-08-06T05:29:39;4.20;;;2.50;;
4051;SDS011;2040;50.924;11.604;2023-08-06T05:32:05;4.50;;;1.90;;
4051;SDS011;2040;50.924;11.604;2023-08-06T05:34:31;2.10;;;1.90;;
4051;SDS011;2040;50.924;11.604;2023-08-06T05:36:56;2.20;;;1.90;;
4051;SDS011;2040;50.924;11.604;2023-08-06T05:39:22;2.47;;;1.90;;
4051;SDS011;2040;50.924;11.604;2023-08-06T05:41:48;5.00;;;2.50;;
4051;SDS011;2040;50.924;11.604;2023-08-06T05:44:13;2.40;;;2.13;;
4051;SDS011;2040;50.924;11.604;2023-08-06T05:46:39;2.93;;;2.50;;
4051;SDS011;2040;50.924;11.604;2023-08-06T05:49:04;4.27;;;2.60;;
4051;SDS011;2040;50.924;11.604;2023-08-06T05:51:30;4.10;;;2.10;;
4051;SDS011;2040;50.924;11.604;2023-08-06T05:53:55;2.50;;;2.30;;
4051;SDS011;2040;50.924;11.604;2023-08-06T05:56:21;2.60;;;2.20;;
4051;SDS011;2040;50.924;11.604;2023-08-06T05:58:47;2.40;;;1.97;;
4051;SDS011;2040;50.924;11.604;2023-08-06T06:01:12;5.13;;;2.33;;
4051;SDS011;2040;50.924;11.604;2023-08-06T06:03:38;5.60;;;2.67;;
4051;SDS011;2040;50.924;11.604;2023-08-06T06:06:03;2.70;;;2.33;;
4051;SDS011;2040;50.924;11.604;2023-08-06T06:08:29;2.10;;;1.90;;
4051;SDS011;2040;50.924;11.604;2023-08-06T06:10:55;2.43;;;2.23;;
4051;SDS011;2040;50.924;11.604;2023-08-06T06:13:20;2.83;;;2.47;;
4051;SDS011;2040;50.924;11.604;2023-08-06T06:15:46;4.93;;;2.50;;
4051;SDS011;2040;50.924;11.604;2023-08-06T06:18:13;3.47;;;2.27;;
4051;SDS011;2040;50.924;11.604;2023-08-06T06:20:38;5.00;;;2.60;;
4051;SDS011;2040;50.924;11.604;2023-08-06T06:23:04;3.30;;;2.53;;
4051;SDS011;2040;50.924;11.604;2023-08-06T06:25:30;2.80;;;2.53;;
4051;SDS011;2040;50.924;11.604;2023-08-06T06:27:55;3.70;;;2.90;;
4051;SDS011;2040;50.924;11.604;2023-08-06T06:30:21;3.10;;;2.10;;
4051;SDS011;2040;50.924;11.604;2023-08-06T06:32:47;3.80;;;2.70;;
4051;SDS011;2040;50.924;11.604;2023-08-06T06:35:20;7.03;;;2.50;;
4051;SDS011;2040;50.924;11.604;2023-08-06T06:37:46;5.10;;;2.37;;
4051;SDS011;2040;50.924;11.604;2023-08-06T06:40:12;5.57;;;2.70;;
4051;SDS011;2040;50.924;11.604;2023-08-06T06:42:37;7.30;;;2.17;;
4051;SDS011;2040;50.924;11.604;2023-08-06T06:45:12;2.73;;;2.37;;
4051;SDS011;2040;50.924;11.604;2023-08-06T06:47:45;2.43;;;2.20;;
4051;SDS011;2040;50.924;11.604;2023-08-06T06:50:11;3.30;;;2.60;;
4051;SDS011;2040;50.924;11.604;2023-08-06T06:52:37;3.03;;;2.40;;
4051;SDS011;2040;50.924;11.604;2023-08-06T06:55:03;2.27;;;2.00;;
4051;SDS011;2040;50.924;11.604;2023-08-06T06:57:29;4.33;;;2.57;;
4051;SDS011;2040;50.924;11.604;2023-08-06T06:59:57;2.90;;;2.33;;
4051;SDS011;2040;50.924;11.604;2023-08-06T07:02:23;3.20;;;2.00;;
4051;SDS011;2040;50.924;11.604;2023-08-06T07:04:49;4.20;;;2.17;;
4051;SDS011;2040;50.924;11.604;2023-08-06T07:07:15;3.10;;;2.30;;
4051;SDS011;2040;50.924;11.604;2023-08-06T07:09:41;5.67;;;2.57;;
4051;SDS011;2040;50.924;11.604;2023-08-06T07:12:07;3.00;;;2.40;;
4051;SDS011;2040;50.924;11.604;2023-08-06T07:14:32;3.27;;;2.37;;
4051;SDS011;2040;50.924;11.604;2023-08-06T07:16:58;3.90;;;2.60;;
4051;SDS011;2040;50.924;11.604;2023-08-06T07:19:23;2.60;;;2.17;;
4051;SDS011;2040;50.924;11.604;2023-08-06T07:21:49;2.20;;;1.73;;
4051;SDS011;2040;50.924;11.604;2023-08-06T07:24:15;6.27;;;3.23;;
4051;SDS011;2040;50.924;11.604;2023-08-06T07:26:41;2.23;;;1.80;;
4051;SDS011;2040;50.924;11.604;2023-08-06T07:29:06;11.20;;;2.57;;
4051;SDS011;2040;50.924;11.604;2023-08-06T07:31:32;3.20;;;2.20;;
4051;SDS011;2040;50.924;11.604;2023-08-06T07:33:58;2.93;;;2.20;;
4051;SDS011;2040;50.924;11.604;2023-08-06T07:36:24;3.57;;;2.60;;
4051;SDS011;2040;50.924;11.604;2023-08-06T07:38:50;2.60;;;2.30;;
4051;SDS011;2040;50.924;11.604;2023-08-06T07:41:20;3.67;;;2.77;;
4051;SDS011;2040;50.924;11.604;2023-08-06T07:43:47;3.17;;;2.33;;
4051;SDS011;2040;50.924;11.604;2023-08-06T07:46:13;3.70;;;2.90;;
4051;SDS011;2040;50.924;11.604;2023-08-06T07:48:39;2.40;;;2.10;;
4051;SDS011;2040;50.924;11.604;2023-08-06T07:51:05;2.30;;;2.10;;
4051;SDS011;2040;50.924;11.604;2023-08-06T07:53:31;2.30;;;2.03;;
4051;SDS011;2040;50.924;11.604;2023-08-06T07:55:56;2.70;;;2.20;;
4051;SDS011;2040;50.924;11.604;2023-08-06T07:58:23;2.60;;;2.40;;
4051;SDS011;2040;50.924;11.604;2023-08-06T08:00:50;4.43;;;2.70;;
4051;SDS011;2040;50.924;11.604;2023-08-06T08:03:16;2.43;;;2.23;;
4051;SDS011;2040;50.924;11.604;2023-08-06T08:05:44;5.93;;;2.97;;
4051;SDS011;2040;50.924;11.604;2023-08-06T08:08:10;2.50;;;2.30;;
4051;SDS011;2040;50.924;11.604;2023-08-06T08:10:36;4.80;;;2.33;;
4051;SDS011;2040;50.924;11.604;2023-08-06T08:13:03;2.83;;;2.53;;
4051;SDS011;2040;50.924;11.604;2023-08-06T08:15:29;3.20;;;2.50;;
4051;SDS011;2040;50.924;11.604;2023-08-06T08:17:56;2.50;;;2.20;;
4051;SDS011;2040;50.924;11.604;2023-08-06T08:20:22;2.20;;;2.00;;
4051;SDS011;2040;50.924;11.604;2023-08-06T08:22:48;2.47;;;2.27;;
4051;SDS011;2040;50.924;11.604;2023-08-06T08:25:13;2.43;;;2.23;;
4051;SDS011;2040;50.924;11.604;2023-08-06T08:27:40;2.63;;;2.10;;
4051;SDS011;2040;50.924;11.604;2023-08-06T08:30:05;2.70;;;2.10;;
4051;SDS011;2040;50.924;11.604;2023-08-06T08:32:31;5.13;;;2.10;;
4051;SDS011;2040;50.924;11.604;2023-08-06T08:34:57;2.50;;;1.90;;
4051;SDS011;2040;50.924;11.604;2023-08-06T08:37:23;6.33;;;2.10;;
4051;SDS011;2040;50.924;11.604;2023-08-06T08:39:49;2.70;;;2.23;;
4051;SDS011;2040;50.924;11.604;2023-08-06T08:42:15;3.00;;;2.23;;
4051;SDS011;2040;50.924;11.604;2023-08-06T08:44:41;2.63;;;1.97;;
4051;SDS011;2040;50.924;11.604;2023-08-06T08:47:07;4.60;;;2.07;;
4051;SDS011;2040;50.924;11.604;2023-08-06T08:49:35;4.17;;;2.33;;
4051;SDS011;2040;50.924;11.604;2023-08-06T08:52:01;2.87;;;1.90;;
4051;SDS011;2040;50.924;11.604;2023-08-06T08:54:28;3.13;;;2.00;;
4051;SDS011;2040;50.924;11.604;2023-08-06T08:56:55;5.20;;;1.70;;
4051;SDS011;2040;50.924;11.604;2023-08-06T08:59:22;2.73;;;2.00;;
4051;SDS011;2040;50.924;11.604;2023-08-06T09:01:48;2.37;;;1.90;;
4051;SDS011;2040;50.924;11.604;2023-08-06T09:04:18;2.23;;;1.93;;
4051;SDS011;2040;50.924;11.604;2023-08-06T09:06:46;4.93;;;1.60;;
4051;SDS011;2040;50.924;11.604;2023-08-06T09:09:17;12.73;;;2.27;;
4051;SDS011;2040;50.924;11.604;2023-08-06T09:12:03;2.60;;;1.87;;
4051;SDS011;2040;50.924;11.604;2023-08-06T09:14:41;2.73;;;2.20;;
4051;SDS011;2040;50.924;11.604;2023-08-06T09:17:07;4.73;;;2.00;;
4051;SDS011;2040;50.924;11.604;2023-08-06T09:19:34;2.27;;;1.80;;
4051;SDS011;2040;50.924;11.604;2023-08-06T09:22:09;3.60;;;1.90;;
4051;SDS011;2040;50.924;11.604;2023-08-06T09:24:38;6.07;;;1.80;;
4051;SDS011;2040;50.924;11.604;2023-08-06T09:27:06;2.20;;;1.30;;
4051;SDS011;2040;50.924;11.604;2023-08-06T09:29:42;3.50;;;1.93;;
4051;SDS011;2040;50.924;11.604;2023-08-06T09:32:12;5.33;;;1.90;;
4051;SDS011;2040;50.924;11.604;2023-08-06T09:34:39;2.33;;;2.03;;
4051;SDS011;2040;50.924;11.604;2023-08-06T09:37:08;6.80;;;2.00;;
4051;SDS011;2040;50.924;11.604;2023-08-06T09:39:43;3.93;;;1.93;;
4051;SDS011;2040;50.924;11.604;2023-08-06T09:42:08;3.10;;;2.20;;
4051;SDS011;2040;50.924;11.604;2023-08-06T09:44:34;4.27;;;1.73;;
4051;SDS011;2040;50.924;11.604;2023-08-06T09:47:01;2.80;;;1.90;;
4051;SDS011;2040;50.924;11.604;2023-08-06T09:49:28;2.50;;;2.17;;
4051;SDS011;2040;50.924;11.604;2023-08-06T09:52:19;5.60;;;2.00;;
4051;SDS011;2040;50.924;11.604;2023-08-06T09:54:45;3.27;;;2.07;;
4051;SDS011;2040;50.924;11.604;2023-08-06T09:57:16;2.90;;;1.67;;
4051;SDS011;2040;50.924;11.604;2023-08-06T09:59:42;3.40;;;2.23;;
4051;SDS011;2040;50.924;11.604;2023-08-06T10:02:11;3.20;;;2.10;;
4051;SDS011;2040;50.924;11.604;2023-08-06T10:04:42;4.10;;;1.83;;
4051;SDS011;2040;50.924;11.604;2023-08-06T10:07:10;2.30;;;1.80;;
4051;SDS011;2040;50.924;11.604;2023-08-06T10:09:38;5.63;;;2.00;;
4051;SDS011;2040;50.924;11.604;2023-08-06T10:12:04;7.40;;;1.90;;
4051;SDS011;2040;50.924;11.604;2023-08-06T10:14:57;4.37;;;2.10;;
4051;SDS011;2040;50.924;11.604;2023-08-06T10:17:24;4.50;;;2.33;;
4051;SDS011;2040;50.924;11.604;2023-08-06T10:19:52;3.53;;;2.03;;
4051;SDS011;2040;50.924;11.604;2023-08-06T10:22:23;4.00;;;1.70;;
4051;SDS011;2040;50.924;11.604;2023-08-06T10:24:56;3.10;;;2.00;;
4051;SDS011;2040;50.924;11.604;2023-08-06T10:27:39;4.03;;;1.87;;
4051;SDS011;2040;50.924;11.604;2023-08-06T10:33:24;4.67;;;1.73;;
4051;SDS011;2040;50.924;11.604;2023-08-06T10:36:17;4.60;;;2.27;;
4051;SDS011;2040;50.924;11.604;2023-08-06T10:38:48;2.93;;;2.13;;
4051;SDS011;2040;50.924;11.604;2023-08-06T10:41:30;4.00;;;2.37;;
4051;SDS011;2040;50.924;11.604;2023-08-06T10:44:10;4.23;;;1.73;;
4051;SDS011;2040;50.924;11.604;2023-08-06T10:46:57;2.10;;;1.70;;
4051;SDS011;2040;50.924;11.604;2023-08-06T10:49:49;2.20;;;1.60;;
4051;SDS011;2040;50.924;11.604;2023-08-06T10:52:15;3.07;;;1.73;;
4051;SDS011;2040;50.924;11.604;2023-08-06T10:55:02;2.23;;;2.00;;
4051;SDS011;2040;50.924;11.604;2023-08-06T10:57:40;3.03;;;2.30;;
4051;SDS011;2040;50.924;11.604;2023-08-06T11:00:52;3.03;;;2.10;;
4051;SDS011;2040;50.924;11.604;2023-08-06T11:03:27;5.80;;;2.60;;
4051;SDS011;2040;50.924;11.604;2023-08-06T11:05:58;4.00;;;2.30;;
4051;SDS011;2040;50.924;11.604;2023-08-06T11:08:25;2.93;;;2.20;;
4051;SDS011;2040;50.924;11.604;2023-08-06T11:11:08;3.03;;;2.10;;
4051;SDS011;2040;50.924;11.604;2023-08-06T11:13:46;3.03;;;2.10;;
4051;SDS011;2040;50.924;11.604;2023-08-06T11:16:16;5.50;;;2.60;;
4051;SDS011;2040;50.924;11.604;2023-08-06T11:18:43;3.83;;;2.63;;
4051;SDS011;2040;50.924;11.604;2023-08-06T11:21:09;1.80;;;1.70;;
4051;SDS011;2040;50.924;11.604;2023-08-06T11:23:36;4.40;;;2.00;;
4051;SDS011;2040;50.924;11.604;2023-08-06T11:26:02;4.17;;;2.27;;
4051;SDS011;2040;50.924;11.604;2023-08-06T11:28:28;3.33;;;2.63;;
4051;SDS011;2040;50.924;11.604;2023-08-06T11:30:54;4.33;;;2.30;;
4051;SDS011;2040;50.924;11.604;2023-08-06T11:33:24;3.93;;;2.00;;
4051;SDS011;2040;50.924;11.604;2023-08-06T11:35:51;2.60;;;1.87;;
4051;SDS011;2040;50.924;11.604;2023-08-06T11:38:17;1.90;;;1.80;;
4051;SDS011;2040;50.924;11.604;2023-08-06T11:40:47;2.00;;;1.80;;
4051;SDS011;2040;50.924;11.604;2023-08-06T11:43:13;1.97;;;1.70;;
4051;SDS011;2040;50.924;11.604;2023-08-06T11:45:39;3.40;;;2.10;;
4051;SDS011;2040;50.924;11.604;2023-08-06T11:48:05;2.13;;;1.93;;
4051;SDS011;2040;50.924;11.604;2023-08-06T11:50:35;3.70;;;1.67;;
4051;SDS011;2040;50.924;11.604;2023-08-06T11:53:02;3.70;;;1.93;;
4051;SDS011;2040;50.924;11.604;2023-08-06T11:55:28;2.47;;;1.53;;
4051;SDS011;2040;50.924;11.604;2023-08-06T11:57:54;2.07;;;1.67;;
4051;SDS011;2040;50.924;11.604;2023-08-06T12:00:20;2.50;;;1.87;;
4051;SDS011;2040;50.924;11.604;2023-08-06T12:02:49;4.43;;;1.80;;
4051;SDS011;2040;50.924;11.604;2023-08-06T12:05:20;2.47;;;1.53;;
4051;SDS011;2040;50.924;11.604;2023-08-06T12:07:49;2.67;;;1.90;;
4051;SDS011;2040;50.924;11.604;2023-08-06T12:10:16;2.10;;;1.90;;
4051;SDS011;2040;50.924;11.604;2023-08-06T12:12:44;1.90;;;1.80;;
4051;SDS011;2040;50.924;11.604;2023-08-06T12:15:10;2.30;;;1.73;;
4051;SDS011;2040;50.924;11.604;2023-08-06T12:17:36;1.77;;;1.67;;
4051;SDS011;2040;50.924;11.604;2023-08-06T12:20:03;1.67;;;1.47;;
4051;SDS011;2040;50.924;11.604;2023-08-06T12:22:29;3.50;;;1.80;;
4051;SDS011;2040;50.924;11.604;2023-08-06T12:25:02;1.53;;;1.37;;
4051;SDS011;2040;50.924;11.604;2023-08-06T12:27:32;2.80;;;1.90;;
4051;SDS011;2040;50.924;11.604;2023-08-06T12:30:01;2.53;;;1.93;;
4051;SDS011;2040;50.924;11.604;2023-08-06T12:32:28;1.90;;;1.70;;
4051;SDS011;2040;50.924;11.604;2023-08-06T12:34:54;2.20;;;2.00;;
4051;SDS011;2040;50.924;11.604;2023-08-06T12:37:20;1.80;;;1.70;;
4051;SDS011;2040;50.924;11.604;2023-08-06T12:39:46;3.83;;;2.10;;
4051;SDS011;2040;50.924;11.604;2023-08-06T12:42:12;6.50;;;2.50;;
4051;SDS011;2040;50.924;11.604;2023-08-06T12:44:37;5.57;;;2.77;;
4051;SDS011;2040;50.924;11.604;2023-08-06T12:47:03;10.67;;;3.10;;
4051;SDS011;2040;50.924;11.604;2023-08-06T12:49:29;9.97;;;3.10;;
4051;SDS011;2040;50.924;11.604;2023-08-06T12:51:56;7.17;;;4.10;;
4051;SDS011;2040;50.924;11.604;2023-08-06T12:54:23;5.37;;;3.07;;
4051;SDS011;2040;50.924;11.604;2023-08-06T12:56:49;3.40;;;2.67;;
4051;SDS011;2040;50.924;11.604;2023-08-06T12:59:15;7.17;;;2.97;;
4051;SDS011;2040;50.924;11.604;2023-08-06T13:01:42;3.83;;;3.13;;
4051;SDS011;2040;50.924;11.604;2023-08-06T13:04:08;4.47;;;2.57;;
4051;SDS011;2040;50.924;11.604;2023-08-06T13:06:34;3.17;;;2.50;;
4051;SDS011;2040;50.924;11.604;2023-08-06T13:09:01;14.73;;;3.10;;
4051;SDS011;2040;50.924;11.604;2023-08-06T13:11:30;3.60;;;2.50;;
4051;SDS011;2040;50.924;11.604;2023-08-06T13:14:03;2.93;;;2.57;;
4051;SDS011;2040;50.924;11.604;2023-08-06T13:16:37;3.60;;;2.67;;
4051;SDS011;2040;50.924;11.604;2023-08-06T13:19:05;3.33;;;2.10;;
4051;SDS011;2040;50.924;11.604;2023-08-06T13:22:14;3.50;;;1.70;;
4051;SDS011;2040;50.924;11.604;2023-08-06T13:24:26;1.90;;;1.70;;
4051;SDS011;2040;50.924;11.604;2023-08-06T13:27:08;4.27;;;2.03;;
4051;SDS011;2040;50.924;11.604;2023-08-06T13:29:43;3.33;;;2.27;;
4051;SDS011;2040;50.924;11.604;2023-08-06T13:32:09;1.63;;;1.50;;
4051;SDS011;2040;50.924;11.604;2023-08-06T13:34:34;3.10;;;1.90;;
4051;SDS011;2040;50.924;11.604;2023-08-06T13:37:06;2.77;;;1.70;;
4051;SDS011;2040;50.924;11.604;2023-08-06T13:39:31;2.60;;;2.10;;
4051;SDS011;2040;50.924;11.604;2023-08-06T13:42:21;3.07;;;1.97;;
4051;SDS011;2040;50.924;11.604;2023-08-06T13:44:59;4.63;;;2.30;;
4051;SDS011;2040;50.924;11.604;2023-08-06T13:47:28;7.73;;;2.20;;
4051;SDS011;2040;50.924;11.604;2023-08-06T13:49:57;2.60;;;1.70;;
4051;SDS011;2040;50.924;11.604;2023-08-06T13:52:37;3.17;;;2.27;;
4051;SDS011;2040;50.924;11.604;2023-08-06T13:57:53;2.00;;;1.80;;
4051;SDS011;2040;50.924;11.604;2023-08-06T14:00:22;2.43;;;2.20;;
4051;SDS011;2040;50.924;11.604;2023-08-06T14:02:48;4.40;;;2.27;;
4051;SDS011;2040;50.924;11.604;2023-08-06T14:05:17;3.33;;;2.20;;
4051;SDS011;2040;50.924;11.604;2023-08-06T14:07:42;4.47;;;2.60;;
4051;SDS011;2040;50.924;11.604;2023-08-06T14:10:20;3.43;;;2.50;;
4051;SDS011;2040;50.924;11.604;2023-08-06T14:12:54;5.10;;;2.17;;
4051;SDS011;2040;50.924;11.604;2023-08-06T14:15:20;2.80;;;2.20;;
4051;SDS011;2040;50.924;11.604;2023-08-06T14:17:46;3.33;;;2.20;;
4051;SDS011;2040;50.924;11.604;2023-08-06T14:20:15;4.00;;;2.00;;
4051;SDS011;2040;50.924;11.604;2023-08-06T14:22:58;3.00;;;2.47;;
4051;SDS011;2040;50.924;11.604;2023-08-06T14:25:29;8.00;;;2.47;;
4051;SDS011;2040;50.924;11.604;2023-08-06T14:28:21;3.83;;;2.43;;
4051;SDS011;2040;50.924;11.604;2023-08-06T14:30:47;5.73;;;3.00;;
4051;SDS011;2040;50.924;11.604;2023-08-06T14:33:15;3.70;;;2.50;;
4051;SDS011;2040;50.924;11.604;2023-08-06T14:35:48;4.80;;;2.43;;
4051;SDS011;2040;50.924;11.604;2023-08-06T14:38:20;3.70;;;2.03;;
4051;SDS011;2040;50.924;11.604;2023-08-06T14:40:46;5.80;;;2.53;;
4051;SDS011;2040;50.924;11.604;2023-08-06T14:43:12;3.73;;;2.33;;
4051;SDS011;2040;50.924;11.604;2023-08-06T14:45:38;5.97;;;2.33;;
4051;SDS011;2040;50.924;11.604;2023-08-06T14:48:04;5.17;;;1.63;;
4051;SDS011;2040;50.924;11.604;2023-08-06T14:50:30;2.33;;;2.13;;
4051;SDS011;2040;50.924;11.604;2023-08-06T14:52:56;2.80;;;2.20;;
4051;SDS011;2040;50.924;11.604;2023-08-06T14:55:25;3.43;;;1.90;;
4051;SDS011;2040;50.924;11.604;2023-08-06T14:57:52;7.30;;;1.80;;
4051;SDS011;2040;50.924;11.604;2023-08-06T15:00:30;10.83;;;2.13;;
4051;SDS011;2040;50.924;11.604;2023-08-06T15:02:55;3.53;;;1.90;;
4051;SDS011;2040;50.924;11.604;2023-08-06T15:05:21;3.10;;;1.60;;
4051;SDS011;2040;50.924;11.604;2023-08-06T15:07:47;3.30;;;1.80;;
4051;SDS011;2040;50.924;11.604;2023-08-06T15:10:13;1.63;;;1.53;;
4051;SDS011;2040;50.924;11.604;2023-08-06T15:12:40;2.30;;;1.73;;
4051;SDS011;2040;50.924;11.604;2023-08-06T15:15:06;9.43;;;1.80;;
4051;SDS011;2040;50.924;11.604;2023-08-06T15:17:33;2.67;;;1.90;;
4051;SDS011;2040;50.924;11.604;2023-08-06T15:19:59;2.73;;;1.80;;
4051;SDS011;2040;50.924;11.604;2023-08-06T15:22:25;5.60;;;1.60;;
4051;SDS011;2040;50.924;11.604;2023-08-06T15:24:54;2.90;;;1.30;;
4051;SDS011;2040;50.924;11.604;2023-08-06T15:27:20;2.03;;;1.30;;